createdAt,value
2022-11-16T00:00:25.430Z,100.00
2022-11-16T00:02:55.046Z,100.00
2022-11-16T00:05:28.110Z,100.00
2022-11-16T00:07:56.989Z,100.00
2022-11-16T00:10:25.538Z,100.00
2022-11-16T00:12:53.930Z,100.00
2022-11-16T00:15:22.253Z,100.00
2022-11-16T00:17:50.752Z,100.00
2022-11-16T00:20:20.641Z,100.00
2022-11-16T00:22:48.957Z,100.00
2022-11-16T00:25:17.522Z,100.00
2022-11-16T00:27:45.862Z,100.00
2022-11-16T00:30:15.177Z,100.00
2022-11-16T00:32:44.073Z,100.00
2022-11-16T00:35:12.349Z,100.00
2022-11-16T00:37:41.957Z,100.00
2022-11-16T00:40:12.454Z,100.00
2022-11-16T00:42:40.804Z,100.00
2022-11-16T00:45:11.000Z,100.00
2022-11-16T00:47:39.348Z,100.00
2022-11-16T00:50:08.365Z,100.00
2022-11-16T00:52:36.718Z,100.00
2022-11-16T00:55:08.291Z,100.00
2022-11-16T00:57:37.683Z,100.00
2022-11-16T01:00:07.704Z,100.00
2022-11-16T01:02:36.590Z,100.00
2022-11-16T01:05:05.412Z,100.00
2022-11-16T01:07:33.818Z,100.00
2022-11-16T01:10:02.233Z,100.00
2022-11-16T01:12:32.095Z,100.00
2022-11-16T01:15:00.980Z,100.00
2022-11-16T01:17:30.084Z,100.00
2022-11-16T01:19:58.532Z,100.00
2022-11-16T01:22:26.953Z,100.00
2022-11-16T01:24:55.284Z,100.00
2022-11-16T01:27:23.645Z,100.00
2022-11-16T01:29:53.355Z,100.00
2022-11-16T01:32:22.015Z,100.00
2022-11-16T01:34:50.741Z,100.00
2022-11-16T01:37:28.286Z,100.00
2022-11-16T01:39:56.688Z,100.00
2022-11-16T01:42:31.112Z,100.00
2022-11-16T01:45:11.085Z,100.00
2022-11-16T01:47:39.409Z,100.00
2022-11-16T01:50:12.763Z,100.00
2022-11-16T01:52:54.721Z,100.00
2022-11-16T01:55:24.899Z,100.00
2022-11-16T01:58:08.121Z,99.79
2022-11-16T02:00:40.174Z,99.37
2022-11-16T02:03:35.692Z,99.19
2022-11-16T02:06:32.543Z,98.89
2022-11-16T02:09:52.018Z,98.63
2022-11-16T02:12:33.083Z,98.66
2022-11-16T02:15:16.770Z,98.83
2022-11-16T02:18:06.277Z,98.61
2022-11-16T02:20:56.789Z,98.13
2022-11-16T02:24:04.013Z,98.15
2022-11-16T02:27:02.157Z,97.35
2022-11-16T02:29:35.462Z,97.21
2022-11-16T02:32:11.126Z,96.46
2022-11-16T02:34:45.556Z,96.09
2022-11-16T02:37:18.890Z,95.55
2022-11-16T02:39:51.276Z,95.05
2022-11-16T02:42:27.369Z,94.42
2022-11-16T02:45:00.618Z,94.08
2022-11-16T02:47:34.245Z,93.70
2022-11-16T02:50:09.403Z,93.44
2022-11-16T02:52:39.019Z,93.73
2022-11-16T02:55:10.902Z,93.65
2022-11-16T02:57:53.006Z,93.37
2022-11-16T03:00:25.671Z,93.09
2022-11-16T03:03:09.481Z,92.79
2022-11-16T03:05:43.038Z,92.66
2022-11-16T03:08:20.285Z,92.98
2022-11-16T03:11:13.119Z,93.25
2022-11-16T03:13:43.319Z,93.40
2022-11-16T03:16:18.548Z,93.65
2022-11-16T03:18:48.628Z,93.89
2022-11-16T03:21:25.051Z,93.76
2022-11-16T03:23:53.366Z,93.92
2022-11-16T03:26:28.201Z,94.08
2022-11-16T03:29:02.788Z,94.10
2022-11-16T03:31:41.492Z,94.51
2022-11-16T03:34:17.760Z,94.64
2022-11-16T03:36:50.023Z,94.71
2022-11-16T03:39:25.198Z,94.72
2022-11-16T03:41:54.295Z,94.74
2022-11-16T03:44:23.420Z,94.82
2022-11-16T03:46:53.102Z,94.65
2022-11-16T03:49:23.430Z,94.99
2022-11-16T03:51:54.127Z,94.90
2022-11-16T03:54:22.968Z,94.61
2022-11-16T03:56:51.179Z,95.05
2022-11-16T03:59:19.843Z,94.54
2022-11-16T04:01:48.094Z,94.26
2022-11-16T04:04:32.119Z,94.36
2022-11-16T04:07:18.630Z,94.14
2022-11-16T04:10:04.692Z,94.04
2022-11-16T04:12:51.907Z,94.09
2022-11-16T04:15:37.794Z,93.98
2022-11-16T04:18:24.124Z,94.05
2022-11-16T04:21:11.249Z,93.97
2022-11-16T04:23:57.158Z,93.85
2022-11-16T04:26:56.058Z,93.94
2022-11-16T04:29:23.714Z,93.38
2022-11-16T04:32:09.727Z,93.40
2022-11-16T04:34:55.722Z,93.38
2022-11-16T04:37:43.284Z,93.41
2022-11-16T04:40:13.379Z,93.36
2022-11-16T04:42:41.630Z,93.51
2022-11-16T04:45:25.429Z,93.39
2022-11-16T04:47:55.252Z,93.17
2022-11-16T04:50:29.108Z,93.18
2022-11-16T04:53:00.509Z,93.03
2022-11-16T04:55:30.259Z,92.76
2022-11-16T04:57:59.925Z,92.83
2022-11-16T05:00:29.120Z,92.75
2022-11-16T05:03:01.295Z,92.46
2022-11-16T05:05:31.093Z,92.60
2022-11-16T05:08:02.105Z,92.75
2022-11-16T05:10:32.959Z,92.79
2022-11-16T05:13:01.291Z,92.84
2022-11-16T05:15:30.106Z,92.53
2022-11-16T05:18:00.004Z,92.64
2022-11-16T05:20:45.939Z,92.23
2022-11-16T05:23:30.488Z,92.18
2022-11-16T05:26:03.267Z,91.79
2022-11-16T05:28:31.728Z,91.60
2022-11-16T05:31:00.238Z,91.01
2022-11-16T05:33:30.425Z,90.63
2022-11-16T05:35:59.139Z,90.63
2022-11-16T05:38:29.044Z,90.28
2022-11-16T05:40:59.917Z,90.05
2022-11-16T05:43:30.651Z,89.71
2022-11-16T05:46:19.208Z,89.40
2022-11-16T05:48:47.494Z,89.11
2022-11-16T05:51:16.010Z,89.15
2022-11-16T05:53:45.986Z,89.01
2022-11-16T05:56:19.544Z,89.40
2022-11-16T05:58:48.251Z,89.40
2022-11-16T06:01:16.671Z,89.36
2022-11-16T06:03:45.061Z,89.30
2022-11-16T06:06:13.536Z,89.29
2022-11-16T06:08:43.254Z,88.82
2022-11-16T06:11:17.172Z,89.09
2022-11-16T06:13:46.840Z,88.96
2022-11-16T06:16:15.387Z,88.37
2022-11-16T06:18:46.798Z,87.99
2022-11-16T06:21:20.175Z,88.55
2022-11-16T06:23:49.073Z,88.58
2022-11-16T06:26:19.272Z,88.90
2022-11-16T06:28:48.491Z,88.94
2022-11-16T06:31:16.991Z,88.58
2022-11-16T06:33:46.817Z,89.38
2022-11-16T06:36:22.789Z,89.53
2022-11-16T06:38:51.923Z,89.32
2022-11-16T06:41:22.991Z,89.70
2022-11-16T06:43:52.284Z,90.33
2022-11-16T06:46:25.364Z,90.47
2022-11-16T06:48:54.299Z,90.79
2022-11-16T06:51:23.134Z,91.29
2022-11-16T06:53:51.435Z,91.80
2022-11-16T06:56:22.453Z,92.00
2022-11-16T06:58:57.292Z,92.47
2022-11-16T07:01:27.605Z,92.70
2022-11-16T07:04:01.572Z,93.00
2022-11-16T07:06:31.103Z,93.25
2022-11-16T07:08:59.905Z,93.05
2022-11-16T07:11:33.294Z,93.22
2022-11-16T07:14:03.045Z,93.78
2022-11-16T07:16:31.757Z,93.98
2022-11-16T07:19:04.178Z,94.49
2022-11-16T07:21:35.089Z,94.70
2022-11-16T07:24:07.388Z,94.80
2022-11-16T07:26:37.529Z,94.55
2022-11-16T07:29:13.869Z,94.16
2022-11-16T07:31:46.600Z,93.65
2022-11-16T07:34:46.954Z,93.32
2022-11-16T07:37:17.624Z,93.04
2022-11-16T07:39:46.265Z,92.28
2022-11-16T07:42:16.432Z,91.86
2022-11-16T07:44:52.544Z,91.42
2022-11-16T07:47:20.852Z,91.18
2022-11-16T07:49:49.648Z,91.01
2022-11-16T07:52:22.883Z,90.60
2022-11-16T07:54:58.359Z,89.69
2022-11-16T07:57:30.402Z,89.14
2022-11-16T08:00:02.287Z,88.64
2022-11-16T08:02:41.725Z,88.07
2022-11-16T08:05:17.238Z,87.48
2022-11-16T08:07:45.930Z,87.89
2022-11-16T08:10:14.746Z,88.62
2022-11-16T08:12:44.460Z,87.98
2022-11-16T08:15:14.219Z,88.30
2022-11-16T08:17:42.908Z,88.92
2022-11-16T08:20:13.490Z,88.85
2022-11-16T08:22:42.602Z,88.08
2022-11-16T08:25:11.444Z,88.63
2022-11-16T08:27:45.756Z,88.30
2022-11-16T08:30:15.425Z,86.72
2022-11-16T08:32:45.993Z,85.89
2022-11-16T08:35:16.084Z,83.83
2022-11-16T08:37:45.998Z,82.26
2022-11-16T08:40:15.098Z,80.94
2022-11-16T08:42:45.917Z,78.86
2022-11-16T08:45:15.311Z,79.35
2022-11-16T08:47:43.864Z,79.73
2022-11-16T08:50:12.297Z,79.17
2022-11-16T08:52:40.869Z,78.17
2022-11-16T08:55:10.264Z,78.04
2022-11-16T08:57:39.555Z,79.57
2022-11-16T09:00:14.139Z,81.82
2022-11-16T09:02:42.503Z,81.72
2022-11-16T09:05:12.097Z,81.30
2022-11-16T09:07:40.755Z,78.60
2022-11-16T09:10:11.010Z,78.42
2022-11-16T09:12:39.838Z,78.12
2022-11-16T09:15:09.809Z,77.36
2022-11-16T09:17:39.580Z,76.74
2022-11-16T09:20:09.669Z,75.70
2022-11-16T09:22:38.024Z,74.59
2022-11-16T09:25:08.158Z,74.61
2022-11-16T09:27:36.507Z,74.92
2022-11-16T09:30:06.640Z,75.54
2022-11-16T09:32:35.049Z,76.06
2022-11-16T09:35:04.810Z,76.88
2022-11-16T09:37:33.108Z,77.06
2022-11-16T09:40:01.521Z,76.85
2022-11-16T09:42:52.530Z,77.43
2022-11-16T09:45:26.523Z,79.89
2022-11-16T09:48:01.482Z,79.36
2022-11-16T09:50:42.666Z,79.91
2022-11-16T09:53:24.960Z,78.49
2022-11-16T09:55:55.846Z,77.75
2022-11-16T09:58:31.524Z,78.08
2022-11-16T10:01:07.518Z,78.53
2022-11-16T10:03:43.951Z,79.16
2022-11-16T10:06:22.502Z,80.86
2022-11-16T10:08:53.150Z,82.98
2022-11-16T10:11:46.343Z,82.41
2022-11-16T10:14:44.645Z,83.26
2022-11-16T10:17:27.147Z,82.94
2022-11-16T10:20:13.777Z,83.09
2022-11-16T10:22:51.052Z,82.67
2022-11-16T10:25:24.232Z,82.45
2022-11-16T10:28:48.249Z,83.57
2022-11-16T10:31:24.769Z,83.04
2022-11-16T10:33:58.064Z,82.11
2022-11-16T10:36:28.725Z,83.83
2022-11-16T10:39:02.515Z,83.38
2022-11-16T10:41:37.161Z,84.37
2022-11-16T10:44:18.020Z,83.29
2022-11-16T10:46:50.257Z,84.31
2022-11-16T10:49:29.250Z,84.01
2022-11-16T10:51:57.783Z,84.66
2022-11-16T10:54:27.453Z,85.45
2022-11-16T10:57:04.307Z,85.56
2022-11-16T10:59:44.232Z,85.79
2022-11-16T11:02:32.340Z,86.34
2022-11-16T11:05:15.496Z,87.13
2022-11-16T11:07:48.026Z,87.15
2022-11-16T11:10:30.770Z,87.63
2022-11-16T11:13:24.283Z,88.26
2022-11-16T11:15:54.701Z,87.78
2022-11-16T11:18:30.082Z,87.01
2022-11-16T11:21:19.875Z,86.54
2022-11-16T11:23:52.398Z,88.09
2022-11-16T11:26:36.856Z,88.67
2022-11-16T11:29:21.314Z,88.22
2022-11-16T11:31:52.730Z,88.63
2022-11-16T11:34:23.826Z,88.53
2022-11-16T11:36:55.464Z,89.47
2022-11-16T11:39:41.600Z,90.32
2022-11-16T11:42:24.999Z,90.80
2022-11-16T11:44:58.587Z,91.98
2022-11-16T11:48:00.366Z,91.23
2022-11-16T11:50:44.320Z,91.86
2022-11-16T11:53:25.368Z,92.09
2022-11-16T11:55:58.550Z,93.13
2022-11-16T11:58:33.101Z,93.83
2022-11-16T12:01:25.969Z,92.43
2022-11-16T12:04:28.989Z,92.99
2022-11-16T12:07:07.233Z,92.81
2022-11-16T12:09:44.550Z,93.64
2022-11-16T12:12:33.981Z,93.86
2022-11-16T12:15:26.146Z,93.58
2022-11-16T12:18:07.853Z,93.43
2022-11-16T12:20:45.961Z,93.85
2022-11-16T12:23:53.633Z,92.41
2022-11-16T12:26:32.815Z,92.16
2022-11-16T12:29:19.689Z,91.16
2022-11-16T12:32:25.428Z,90.98
2022-11-16T12:35:14.725Z,91.12
2022-11-16T12:37:51.528Z,91.05
2022-11-16T12:40:38.732Z,90.70
2022-11-16T12:43:18.047Z,89.48
2022-11-16T12:46:01.785Z,90.64
2022-11-16T12:49:14.227Z,89.46
2022-11-16T12:51:57.071Z,88.01
2022-11-16T12:55:18.979Z,88.61
2022-11-16T12:57:48.196Z,89.53
2022-11-16T13:00:18.314Z,89.47
2022-11-16T13:03:03.088Z,89.64
2022-11-16T13:05:51.082Z,89.32
2022-11-16T13:08:33.980Z,89.24
2022-11-16T13:11:09.534Z,90.64
2022-11-16T13:13:40.163Z,90.72
2022-11-16T13:16:09.184Z,91.00
2022-11-16T13:18:44.043Z,91.37
2022-11-16T13:21:23.355Z,92.04
2022-11-16T13:24:07.505Z,91.46
2022-11-16T13:26:45.125Z,92.20
2022-11-16T13:29:27.290Z,92.09
2022-11-16T13:32:01.606Z,92.09
2022-11-16T13:34:34.193Z,92.35
2022-11-16T13:37:45.934Z,92.16
2022-11-16T13:40:27.721Z,91.88
2022-11-16T13:43:20.632Z,92.20
2022-11-16T13:45:58.431Z,91.98
2022-11-16T13:48:33.740Z,91.58
2022-11-16T13:51:04.297Z,91.91
2022-11-16T13:54:37.924Z,92.06
2022-11-16T13:56:29.271Z,91.76
2022-11-16T13:58:59.466Z,92.01
2022-11-16T14:02:00.081Z,91.58
2022-11-16T14:04:57.137Z,92.35
2022-11-16T14:07:44.956Z,91.94
2022-11-16T14:10:54.610Z,91.69
2022-11-16T14:13:42.347Z,91.61
2022-11-16T14:16:47.640Z,91.63
2022-11-16T14:19:56.001Z,92.01
2022-11-16T14:22:46.838Z,92.17
2022-11-16T14:25:27.296Z,91.52
2022-11-16T14:28:14.530Z,91.41
2022-11-16T14:30:55.136Z,91.76
2022-11-16T14:33:34.299Z,91.38
2022-11-16T14:36:07.500Z,91.40
2022-11-16T14:38:39.085Z,91.12
2022-11-16T14:41:14.481Z,90.92
2022-11-16T14:43:45.955Z,91.17
2022-11-16T14:46:23.685Z,91.21
2022-11-16T14:48:52.354Z,90.83
2022-11-16T14:51:26.210Z,90.50
2022-11-16T14:54:00.943Z,90.12
2022-11-16T14:56:29.250Z,90.02
2022-11-16T14:59:02.004Z,89.96
2022-11-16T15:01:33.219Z,89.82
2022-11-16T15:04:05.228Z,89.43
2022-11-16T15:06:42.234Z,89.26
2022-11-16T15:09:19.276Z,89.78
2022-11-16T15:12:10.825Z,89.92
2022-11-16T15:14:46.887Z,89.30
2022-11-16T15:17:19.487Z,89.83
2022-11-16T15:19:56.386Z,90.41
2022-11-16T15:22:28.434Z,90.12
2022-11-16T15:24:58.914Z,90.54
2022-11-16T15:27:38.467Z,89.85
2022-11-16T15:30:18.600Z,90.21
2022-11-16T15:32:49.568Z,90.52
2022-11-16T15:35:23.073Z,90.74
2022-11-16T15:38:04.457Z,91.66
2022-11-16T15:40:33.798Z,91.60
2022-11-16T15:43:05.766Z,91.70
2022-11-16T15:45:36.554Z,91.73
2022-11-16T15:48:05.896Z,91.60
2022-11-16T15:50:34.457Z,91.82
2022-11-16T15:53:04.137Z,91.70
2022-11-16T15:55:37.769Z,91.82
2022-11-16T15:58:14.812Z,91.85
2022-11-16T16:00:43.879Z,91.78
2022-11-16T16:03:23.216Z,92.10
2022-11-16T16:05:52.429Z,92.06
2022-11-16T16:08:31.255Z,92.71
2022-11-16T16:11:07.035Z,92.70
2022-11-16T16:13:38.211Z,92.79
2022-11-16T16:16:36.312Z,92.92
2022-11-16T16:19:09.979Z,93.37
2022-11-16T16:21:44.691Z,93.33
2022-11-16T16:24:41.148Z,93.28
2022-11-16T16:27:28.638Z,93.01
2022-11-16T16:29:58.861Z,93.70
2022-11-16T16:32:29.301Z,93.19
2022-11-16T16:34:59.560Z,93.12
2022-11-16T16:37:30.450Z,93.52
2022-11-16T16:40:00.573Z,93.68
2022-11-16T16:42:29.149Z,93.20
2022-11-16T16:45:02.157Z,93.88
2022-11-16T16:47:30.625Z,94.04
2022-11-16T16:49:59.047Z,93.64
2022-11-16T16:52:27.724Z,93.72
2022-11-16T16:54:55.966Z,93.66
2022-11-16T16:57:25.756Z,94.66
2022-11-16T16:59:54.190Z,94.51
2022-11-16T17:02:22.431Z,94.79
2022-11-16T17:04:50.724Z,94.83
2022-11-16T17:07:19.185Z,94.73
2022-11-16T17:09:47.440Z,95.08
2022-11-16T17:12:15.782Z,95.48
2022-11-16T17:14:51.385Z,96.00
2022-11-16T17:17:20.286Z,96.13
2022-11-16T17:19:48.639Z,96.47
2022-11-16T17:22:17.202Z,96.38
2022-11-16T17:24:45.459Z,96.06
2022-11-16T17:27:14.080Z,95.90
2022-11-16T17:29:42.427Z,95.68
2022-11-16T17:32:12.267Z,96.12
2022-11-16T17:34:41.479Z,96.10
2022-11-16T17:37:09.943Z,96.65
2022-11-16T17:39:38.278Z,95.96
2022-11-16T17:42:06.628Z,95.70
2022-11-16T17:44:36.996Z,95.59
2022-11-16T17:47:05.421Z,96.30
2022-11-16T17:49:35.053Z,95.94
2022-11-16T17:52:04.909Z,95.77
2022-11-16T17:54:33.407Z,95.97
2022-11-16T17:57:01.708Z,96.00
2022-11-16T17:59:30.245Z,96.02
2022-11-16T18:01:58.699Z,96.05
2022-11-16T18:04:27.007Z,96.21
2022-11-16T18:06:57.154Z,96.21
2022-11-16T18:09:25.500Z,96.30
2022-11-16T18:11:53.741Z,95.70
2022-11-16T18:14:22.327Z,96.02
2022-11-16T18:16:50.681Z,96.14
2022-11-16T18:19:20.739Z,96.67
2022-11-16T18:21:49.497Z,96.31
2022-11-16T18:24:19.205Z,96.56
2022-11-16T18:26:47.491Z,96.78
2022-11-16T18:29:18.725Z,96.66
2022-11-16T18:31:47.023Z,96.95
2022-11-16T18:34:15.949Z,97.53
2022-11-16T18:36:44.300Z,97.46
2022-11-16T18:39:12.693Z,97.50
2022-11-16T18:41:51.733Z,97.65
2022-11-16T18:44:22.745Z,97.57
2022-11-16T18:46:51.120Z,97.44
2022-11-16T18:49:19.442Z,97.95
2022-11-16T18:51:47.714Z,98.40
2022-11-16T18:54:16.179Z,98.55
2022-11-16T18:56:45.785Z,98.38
2022-11-16T18:59:14.245Z,98.25
2022-11-16T19:01:42.473Z,98.57
2022-11-16T19:04:12.344Z,97.91
2022-11-16T19:06:40.753Z,97.71
2022-11-16T19:09:09.762Z,97.70
2022-11-16T19:11:38.202Z,97.84
2022-11-16T19:14:08.501Z,97.78
2022-11-16T19:16:37.105Z,97.41
2022-11-16T19:19:06.078Z,97.53
2022-11-16T19:21:34.350Z,96.63
2022-11-16T19:24:02.555Z,97.39
2022-11-16T19:26:30.843Z,97.62
2022-11-16T19:29:01.665Z,97.40
2022-11-16T19:31:33.779Z,97.88
2022-11-16T19:34:05.212Z,97.99
2022-11-16T19:36:35.590Z,98.39
2022-11-16T19:39:05.013Z,98.28
2022-11-16T19:41:33.467Z,98.94
2022-11-16T19:44:03.085Z,98.76
2022-11-16T19:46:34.519Z,98.64
2022-11-16T19:49:03.582Z,98.43
2022-11-16T19:51:33.774Z,98.30
2022-11-16T19:54:03.460Z,98.78
2022-11-16T19:56:32.197Z,98.96
2022-11-16T19:59:00.650Z,98.83
2022-11-16T20:01:29.959Z,98.21
2022-11-16T20:04:03.378Z,98.51
2022-11-16T20:06:34.558Z,98.35
2022-11-16T20:09:08.728Z,98.48
2022-11-16T20:11:40.124Z,98.39
2022-11-16T20:14:12.173Z,98.29
2022-11-16T20:16:43.066Z,98.10
2022-11-16T20:19:13.006Z,97.90
2022-11-16T20:21:43.097Z,98.24
2022-11-16T20:24:14.434Z,98.41
2022-11-16T20:26:45.246Z,98.25
2022-11-16T20:29:13.605Z,98.40
2022-11-16T20:31:42.925Z,98.31
2022-11-16T20:34:15.752Z,98.46
2022-11-16T20:36:46.979Z,98.63
2022-11-16T20:39:16.928Z,98.64
2022-11-16T20:41:45.978Z,98.05
2022-11-16T20:44:18.523Z,98.39
2022-11-16T20:46:47.135Z,98.38
2022-11-16T20:49:16.772Z,98.24
2022-11-16T20:51:46.954Z,98.00
2022-11-16T20:54:15.325Z,97.52
2022-11-16T20:56:44.445Z,97.93
2022-11-16T20:59:12.892Z,97.99
2022-11-16T21:01:44.699Z,97.97
2022-11-16T21:04:13.062Z,97.98
2022-11-16T21:06:42.755Z,98.03
2022-11-16T21:09:13.040Z,98.08
2022-11-16T21:11:55.213Z,97.93
2022-11-16T21:14:24.716Z,97.57
2022-11-16T21:16:52.989Z,97.76
2022-11-16T21:19:21.483Z,97.43
2022-11-16T21:21:51.070Z,98.27
2022-11-16T21:24:19.444Z,98.82
2022-11-16T21:26:47.635Z,98.54
2022-11-16T21:29:16.095Z,98.75
2022-11-16T21:31:44.387Z,99.28
2022-11-16T21:34:12.611Z,99.68
2022-11-16T21:36:41.041Z,99.80
2022-11-16T21:39:10.654Z,99.83
2022-11-16T21:41:39.018Z,100.00
2022-11-16T21:44:07.277Z,100.00
2022-11-16T21:46:35.535Z,100.00
2022-11-16T21:49:03.727Z,100.00
2022-11-16T21:51:32.065Z,100.00
2022-11-16T21:54:00.323Z,100.00
2022-11-16T21:56:29.995Z,100.00
2022-11-16T21:58:58.502Z,100.00
2022-11-16T22:01:46.776Z,100.00
2022-11-16T22:04:32.510Z,100.00
2022-11-16T22:07:18.463Z,100.00
2022-11-16T22:09:46.889Z,100.00
2022-11-16T22:12:16.572Z,100.00
2022-11-16T22:14:44.823Z,100.00
2022-11-16T22:17:13.147Z,100.00
2022-11-16T22:19:41.514Z,100.00
2022-11-16T22:22:09.739Z,100.00
2022-11-16T22:24:38.129Z,100.00
2022-11-16T22:27:06.362Z,100.00
2022-11-16T22:29:36.004Z,100.00
2022-11-16T22:32:04.557Z,100.00
2022-11-16T22:34:32.833Z,100.00
2022-11-16T22:37:01.302Z,100.00
2022-11-16T22:39:29.831Z,100.00
2022-11-16T22:41:58.140Z,100.00
2022-11-16T22:44:26.334Z,100.00
2022-11-16T22:46:55.990Z,100.00
2022-11-16T22:49:24.919Z,100.00
2022-11-16T22:51:53.425Z,100.00
2022-11-16T22:54:27.377Z,100.00
2022-11-16T22:56:56.904Z,100.00
2022-11-16T22:59:25.291Z,100.00
2022-11-16T23:01:54.950Z,100.00
2022-11-16T23:04:23.277Z,100.00
2022-11-16T23:06:51.527Z,100.00
2022-11-16T23:09:19.820Z,100.00
2022-11-16T23:12:05.921Z,100.00
2022-11-16T23:14:51.545Z,100.00
2022-11-16T23:17:21.233Z,100.00
2022-11-16T23:20:06.847Z,100.00
2022-11-16T23:22:52.442Z,100.00
2022-11-16T23:25:38.221Z,100.00
2022-11-16T23:28:09.025Z,100.00
2022-11-16T23:30:38.030Z,100.00
2022-11-16T23:33:07.831Z,100.00
2022-11-16T23:35:36.278Z,100.00
2022-11-16T23:38:07.581Z,100.00
2022-11-16T23:40:38.340Z,100.00
2022-11-16T23:43:24.304Z,100.00
2022-11-16T23:45:52.864Z,100.00
2022-11-16T23:48:22.454Z,100.00
2022-11-16T23:50:50.918Z,100.00
2022-11-16T23:53:19.166Z,100.00
2022-11-16T23:55:47.562Z,100.00
2022-11-16T23:58:16.480Z,100.00
